首页
METAR-TAF:

METAR-TAF

机场 :

大章克申, 科羅拉多州, 美国

纬度: 39-08-02N, 经度: 108-32-19W, 海拔: 1481米

当前天气观测

该预报发布于38分钟前的21:53 UTC
风速8节,风向西南
温度 36°C
湿度 18%
气压 1017 hPa
能見度: 12.9公里
少量云层高于100英尺

METAR: KGJT 252153Z 22008KT 8SM FEW001 36/08 A3002 RMK AO2 SLP082 T03610078

时间: 16:31 (22:31 UTC)

预报

该预报发布于5小时和11分钟前的17:20 UTC
预报有效从25日的 18点(UTC)到 26日的 18点(UTC)
风速5节,风向东南
能見度: 10公里
天空无云
从 25日的 2100点(UTC)
风速6节,风向西
能見度: 10公里
少量云层高于14000英尺
少量云层高于25000英尺
从 26日的 0300点(UTC)
风速5节,风向北转东北
能見度: 10公里
少量云层高于14000英尺
散云层高于25000英尺
从 26日的 0900点(UTC)
风速7节,风向
能見度: 10公里
少量云层高于12000英尺
少量云层高于25000英尺

TAF: KGJT 251720Z 2518/2618 13005KT P6SM SKC FM252100 28006KT P6SM FEW140 FEW250 FM260300 03005KT P6SM FEW140 SCT250 FM260900 08007KT P6SM FEW120 FEW250

超过4000个机场的气象观测和天气预报(METAR&TAF报告)。

可查询的气象台以黄色和红色小点在地图上表示。

将鼠标移到小点上方,可查看气象台名称。

然后点击查看天气观测和预报。

如需切换地图:点击带黑十字的绿色按钮放大地图;点击带横线的绿色按钮缩小地图;或者点击绿色箭头查看邻近地区的地图。


METAR-TAF: